DAAG/ALG METAR and TAF weather

Enter ICAO airport designator
Station Type Date Time Source
DAAG METAR 2021/09/24 02:00 UTC NOAA

DAAG 240200Z 22004KT 160V280 8000 FEW023 SCT040 26/19 Q1011


Station Type Date Time Source
DAAG Decoded METAR 2021/09/24 02:00 UTC NOAA

Dar-El-Beida, Algeria (DAAG) 36-43N 003-15E 25M
Sep 23, 2021 - 10:00 PM EDT / 2021.09.24 0200 UTC
Wind: from the SW (220 degrees) at 5 MPH (4 KT) (direction variable):0
Visibility: 4 mile(s):0
Sky conditions: partly cloudy
Temperature: 78 F (26 C)
Dew Point: 66 F (19 C)
Relative Humidity: 65%
Pressure (altimeter): 29.85 in. Hg (1011 hPa)
ob: DAAG 240200Z 22004KT 160V280 8000 FEW023 SCT040 26/19 Q1011
cycle: 2

Station Type Date Time Source
DAAG TAF 2021/09/24 00:00 UTC NOAA

TAF DAAG 232300Z 2400/2424 VRB02KT 8000 FEW023 SCT046 PROB40
TEMPO 2402/2409 3000 BR BKN015
BECMG 2408/2411 30010KT
BECMG 2418/2421 VRB02KT

Example: see airport list